sensor_id;sensor_type;location;lat;lon;timestamp;P1;durP1;ratioP1;P2;durP2;ratioP2
21213;SDS011;10764;50.850;2.904;2023-11-21T00:00:02;783.63;;;714.27;;
21213;SDS011;10764;50.850;2.904;2023-11-21T00:02:38;819.72;;;747.58;;
21213;SDS011;10764;50.850;2.904;2023-11-21T00:05:07;731.90;;;666.58;;
21213;SDS011;10764;50.850;2.904;2023-11-21T00:07:36;838.97;;;764.97;;
21213;SDS011;10764;50.850;2.904;2023-11-21T00:10:04;834.83;;;761.22;;
21213;SDS011;10764;50.850;2.904;2023-11-21T00:12:32;811.60;;;739.78;;
21213;SDS011;10764;50.850;2.904;2023-11-21T00:14:59;741.15;;;674.95;;
21213;SDS011;10764;50.850;2.904;2023-11-21T00:17:27;811.33;;;739.58;;
21213;SDS011;10764;50.850;2.904;2023-11-21T00:19:55;886.33;;;808.93;;
21213;SDS011;10764;50.850;2.904;2023-11-21T00:22:21;838.72;;;764.90;;
21213;SDS011;10764;50.850;2.904;2023-11-21T00:24:49;982.63;;;898.80;;
21213;SDS011;10764;50.850;2.904;2023-11-21T00:27:16;519.55;;;472.05;;
21213;SDS011;10764;50.850;2.904;2023-11-21T00:29:43;666.40;;;606.22;;
21213;SDS011;10764;50.850;2.904;2023-11-21T00:32:11;1064.07;;;974.27;;
21213;SDS011;10764;50.850;2.904;2023-11-21T00:34:38;847.78;;;773.45;;
21213;SDS011;10764;50.850;2.904;2023-11-21T00:37:05;742.83;;;676.50;;
21213;SDS011;10764;50.850;2.904;2023-11-21T00:39:32;973.10;;;889.70;;
21213;SDS011;10764;50.850;2.904;2023-11-21T00:41:59;852.50;;;777.58;;
21213;SDS011;10764;50.850;2.904;2023-11-21T00:44:26;745.97;;;679.77;;
21213;SDS011;10764;50.850;2.904;2023-11-21T00:46:53;934.30;;;853.50;;
21213;SDS011;10764;50.850;2.904;2023-11-21T00:49:20;874.40;;;798.13;;
21213;SDS011;10764;50.850;2.904;2023-11-21T00:51:48;902.47;;;823.83;;
21213;SDS011;10764;50.850;2.904;2023-11-21T00:54:15;773.63;;;705.17;;
21213;SDS011;10764;50.850;2.904;2023-11-21T00:56:43;331.20;;;301.42;;
21213;SDS011;10764;50.850;2.904;2023-11-21T00:59:10;411.05;;;373.63;;
21213;SDS011;10764;50.850;2.904;2023-11-21T01:01:37;98.82;;;90.18;;
21213;SDS011;10764;50.850;2.904;2023-11-21T01:04:05;363.60;;;330.50;;
21213;SDS011;10764;50.850;2.904;2023-11-21T01:06:33;167.60;;;153.35;;
21213;SDS011;10764;50.850;2.904;2023-11-21T01:09:00;76.30;;;70.32;;
21213;SDS011;10764;50.850;2.904;2023-11-21T01:11:27;86.75;;;79.95;;
21213;SDS011;10764;50.850;2.904;2023-11-21T01:13:54;65.63;;;60.42;;
21213;SDS011;10764;50.850;2.904;2023-11-21T01:16:21;61.17;;;56.27;;
21213;SDS011;10764;50.850;2.904;2023-11-21T01:18:48;34.70;;;31.95;;
21213;SDS011;10764;50.850;2.904;2023-11-21T01:21:15;23.80;;;21.77;;
21213;SDS011;10764;50.850;2.904;2023-11-21T01:23:42;270.98;;;247.07;;
21213;SDS011;10764;50.850;2.904;2023-11-21T01:26:09;427.83;;;389.15;;
21213;SDS011;10764;50.850;2.904;2023-11-21T01:28:36;456.40;;;414.83;;
21213;SDS011;10764;50.850;2.904;2023-11-21T01:31:03;246.97;;;225.27;;
21213;SDS011;10764;50.850;2.904;2023-11-21T01:33:30;165.07;;;151.27;;
21213;SDS011;10764;50.850;2.904;2023-11-21T01:35:57;232.18;;;211.82;;
21213;SDS011;10764;50.850;2.904;2023-11-21T01:38:25;360.38;;;327.90;;
21213;SDS011;10764;50.850;2.904;2023-11-21T01:40:52;417.93;;;379.93;;
21213;SDS011;10764;50.850;2.904;2023-11-21T01:43:19;413.98;;;376.27;;
21213;SDS011;10764;50.850;2.904;2023-11-21T01:45:46;472.70;;;429.80;;
21213;SDS011;10764;50.850;2.904;2023-11-21T01:48:13;307.33;;;279.80;;
21213;SDS011;10764;50.850;2.904;2023-11-21T01:50:43;346.27;;;315.20;;
21213;SDS011;10764;50.850;2.904;2023-11-21T01:53:11;327.17;;;297.80;;
21213;SDS011;10764;50.850;2.904;2023-11-21T01:55:40;222.63;;;203.20;;
21213;SDS011;10764;50.850;2.904;2023-11-21T01:58:08;53.50;;;49.30;;
21213;SDS011;10764;50.850;2.904;2023-11-21T02:00:36;117.10;;;107.72;;
21213;SDS011;10764;50.850;2.904;2023-11-21T02:03:04;119.97;;;110.35;;
21213;SDS011;10764;50.850;2.904;2023-11-21T02:05:33;101.97;;;93.75;;
21213;SDS011;10764;50.850;2.904;2023-11-21T02:08:00;136.38;;;125.28;;
21213;SDS011;10764;50.850;2.904;2023-11-21T02:10:30;182.25;;;166.77;;
21213;SDS011;10764;50.850;2.904;2023-11-21T02:12:57;91.05;;;83.85;;
21213;SDS011;10764;50.850;2.904;2023-11-21T02:15:28;129.25;;;118.70;;
21213;SDS011;10764;50.850;2.904;2023-11-21T02:17:55;151.70;;;139.25;;
21213;SDS011;10764;50.850;2.904;2023-11-21T02:20:24;417.70;;;380.00;;
21213;SDS011;10764;50.850;2.904;2023-11-21T02:22:53;487.25;;;442.80;;
21213;SDS011;10764;50.850;2.904;2023-11-21T02:25:30;276.60;;;252.23;;
21213;SDS011;10764;50.850;2.904;2023-11-21T02:27:59;120.68;;;111.10;;
21213;SDS011;10764;50.850;2.904;2023-11-21T02:30:29;337.40;;;307.27;;
21213;SDS011;10764;50.850;2.904;2023-11-21T02:33:00;274.98;;;250.77;;
21213;SDS011;10764;50.850;2.904;2023-11-21T02:35:28;353.05;;;321.55;;
21213;SDS011;10764;50.850;2.904;2023-11-21T02:37:54;189.93;;;173.93;;
21213;SDS011;10764;50.850;2.904;2023-11-21T02:40:23;389.50;;;354.38;;
21213;SDS011;10764;50.850;2.904;2023-11-21T02:42:52;411.27;;;374.15;;
21213;SDS011;10764;50.850;2.904;2023-11-21T02:45:20;441.65;;;401.60;;
21213;SDS011;10764;50.850;2.904;2023-11-21T02:47:48;345.23;;;314.30;;
21213;SDS011;10764;50.850;2.904;2023-11-21T02:50:16;393.70;;;358.13;;
21213;SDS011;10764;50.850;2.904;2023-11-21T02:52:45;409.52;;;372.42;;
21213;SDS011;10764;50.850;2.904;2023-11-21T02:55:13;338.67;;;308.60;;
21213;SDS011;10764;50.850;2.904;2023-11-21T02:57:40;305.30;;;278.33;;
21213;SDS011;10764;50.850;2.904;2023-11-21T03:00:07;292.25;;;266.45;;
21213;SDS011;10764;50.850;2.904;2023-11-21T03:02:36;373.25;;;339.92;;
21213;SDS011;10764;50.850;2.904;2023-11-21T03:05:06;339.60;;;309.23;;
21213;SDS011;10764;50.850;2.904;2023-11-21T03:07:33;288.13;;;262.73;;
21213;SDS011;10764;50.850;2.904;2023-11-21T03:10:00;292.48;;;266.77;;
21213;SDS011;10764;50.850;2.904;2023-11-21T03:12:27;312.50;;;284.65;;
21213;SDS011;10764;50.850;2.904;2023-11-21T03:14:54;325.83;;;296.75;;
21213;SDS011;10764;50.850;2.904;2023-11-21T03:17:20;337.33;;;307.35;;
21213;SDS011;10764;50.850;2.904;2023-11-21T03:19:47;233.63;;;213.55;;
21213;SDS011;10764;50.850;2.904;2023-11-21T03:22:14;332.35;;;302.95;;
21213;SDS011;10764;50.850;2.904;2023-11-21T03:24:41;422.02;;;383.90;;
21213;SDS011;10764;50.850;2.904;2023-11-21T03:27:08;260.73;;;238.10;;
21213;SDS011;10764;50.850;2.904;2023-11-21T03:29:35;483.42;;;439.50;;
21213;SDS011;10764;50.850;2.904;2023-11-21T03:32:02;455.27;;;413.83;;
21213;SDS011;10764;50.850;2.904;2023-11-21T03:34:29;517.00;;;469.73;;
21213;SDS011;10764;50.850;2.904;2023-11-21T03:36:56;524.30;;;476.50;;
21213;SDS011;10764;50.850;2.904;2023-11-21T03:39:22;559.28;;;508.33;;
21213;SDS011;10764;50.850;2.904;2023-11-21T03:41:49;395.50;;;359.73;;
21213;SDS011;10764;50.850;2.904;2023-11-21T03:44:18;247.68;;;226.27;;
21213;SDS011;10764;50.850;2.904;2023-11-21T03:46:44;257.27;;;234.98;;
21213;SDS011;10764;50.850;2.904;2023-11-21T03:49:11;239.95;;;219.13;;
21213;SDS011;10764;50.850;2.904;2023-11-21T03:51:40;264.58;;;241.50;;
21213;SDS011;10764;50.850;2.904;2023-11-21T03:54:07;182.25;;;166.90;;
21213;SDS011;10764;50.850;2.904;2023-11-21T03:56:38;150.10;;;137.75;;
21213;SDS011;10764;50.850;2.904;2023-11-21T03:59:07;160.90;;;147.63;;
21213;SDS011;10764;50.850;2.904;2023-11-21T04:01:34;146.70;;;134.85;;
21213;SDS011;10764;50.850;2.904;2023-11-21T04:04:00;151.93;;;139.65;;
21213;SDS011;10764;50.850;2.904;2023-11-21T04:06:28;118.88;;;109.45;;
21213;SDS011;10764;50.850;2.904;2023-11-21T04:08:55;125.75;;;115.75;;
21213;SDS011;10764;50.850;2.904;2023-11-21T04:11:22;127.28;;;117.20;;
21213;SDS011;10764;50.850;2.904;2023-11-21T04:13:49;200.37;;;183.30;;
21213;SDS011;10764;50.850;2.904;2023-11-21T04:16:16;153.27;;;140.90;;
21213;SDS011;10764;50.850;2.904;2023-11-21T04:18:44;159.15;;;146.15;;
21213;SDS011;10764;50.850;2.904;2023-11-21T04:21:11;193.95;;;177.50;;
21213;SDS011;10764;50.850;2.904;2023-11-21T04:23:39;195.20;;;178.65;;
21213;SDS011;10764;50.850;2.904;2023-11-21T04:26:07;200.40;;;183.37;;
21213;SDS011;10764;50.850;2.904;2023-11-21T04:28:34;198.02;;;181.27;;
21213;SDS011;10764;50.850;2.904;2023-11-21T04:31:01;130.65;;;120.40;;
21213;SDS011;10764;50.850;2.904;2023-11-21T04:33:29;127.55;;;117.50;;
21213;SDS011;10764;50.850;2.904;2023-11-21T04:35:57;124.00;;;114.25;;
21213;SDS011;10764;50.850;2.904;2023-11-21T04:38:24;119.95;;;110.55;;
21213;SDS011;10764;50.850;2.904;2023-11-21T04:40:51;121.07;;;111.63;;
21213;SDS011;10764;50.850;2.904;2023-11-21T04:43:18;115.88;;;106.85;;
21213;SDS011;10764;50.850;2.904;2023-11-21T04:45:45;113.13;;;104.32;;
21213;SDS011;10764;50.850;2.904;2023-11-21T04:48:12;133.15;;;122.63;;
21213;SDS011;10764;50.850;2.904;2023-11-21T04:50:40;124.18;;;114.43;;
21213;SDS011;10764;50.850;2.904;2023-11-21T04:53:08;104.88;;;96.63;;
21213;SDS011;10764;50.850;2.904;2023-11-21T04:55:35;88.63;;;81.75;;
21213;SDS011;10764;50.850;2.904;2023-11-21T04:58:02;92.32;;;85.10;;
21213;SDS011;10764;50.850;2.904;2023-11-21T05:00:30;92.97;;;85.75;;
21213;SDS011;10764;50.850;2.904;2023-11-21T05:02:57;96.43;;;88.85;;
21213;SDS011;10764;50.850;2.904;2023-11-21T05:05:25;110.72;;;101.95;;
21213;SDS011;10764;50.850;2.904;2023-11-21T05:07:52;102.03;;;93.97;;
21213;SDS011;10764;50.850;2.904;2023-11-21T05:10:19;97.03;;;89.40;;
21213;SDS011;10764;50.850;2.904;2023-11-21T05:12:46;104.85;;;96.55;;
21213;SDS011;10764;50.850;2.904;2023-11-21T05:15:14;105.67;;;97.40;;
21213;SDS011;10764;50.850;2.904;2023-11-21T05:17:41;137.50;;;126.38;;
21213;SDS011;10764;50.850;2.904;2023-11-21T05:20:11;151.00;;;138.73;;
21213;SDS011;10764;50.850;2.904;2023-11-21T05:22:40;160.00;;;146.73;;
21213;SDS011;10764;50.850;2.904;2023-11-21T05:25:08;193.77;;;177.33;;
21213;SDS011;10764;50.850;2.904;2023-11-21T05:27:36;299.20;;;272.70;;
21213;SDS011;10764;50.850;2.904;2023-11-21T05:30:03;324.48;;;295.60;;
21213;SDS011;10764;50.850;2.904;2023-11-21T05:32:35;331.00;;;301.50;;
21213;SDS011;10764;50.850;2.904;2023-11-21T05:35:02;335.70;;;305.88;;
21213;SDS011;10764;50.850;2.904;2023-11-21T05:37:29;351.13;;;319.85;;
21213;SDS011;10764;50.850;2.904;2023-11-21T05:39:57;363.73;;;331.10;;
21213;SDS011;10764;50.850;2.904;2023-11-21T05:42:24;348.25;;;317.23;;
21213;SDS011;10764;50.850;2.904;2023-11-21T05:44:50;399.17;;;363.37;;
21213;SDS011;10764;50.850;2.904;2023-11-21T05:47:17;395.55;;;359.88;;
21213;SDS011;10764;50.850;2.904;2023-11-21T05:49:45;421.33;;;383.20;;
21213;SDS011;10764;50.850;2.904;2023-11-21T05:52:16;438.30;;;398.58;;
21213;SDS011;10764;50.850;2.904;2023-11-21T05:54:43;418.97;;;381.17;;
21213;SDS011;10764;50.850;2.904;2023-11-21T05:57:10;433.17;;;393.98;;
21213;SDS011;10764;50.850;2.904;2023-11-21T05:59:37;425.50;;;386.83;;
21213;SDS011;10764;50.850;2.904;2023-11-21T06:02:04;467.92;;;425.48;;
21213;SDS011;10764;50.850;2.904;2023-11-21T06:04:31;443.73;;;403.35;;
21213;SDS011;10764;50.850;2.904;2023-11-21T06:06:58;480.37;;;436.97;;
21213;SDS011;10764;50.850;2.904;2023-11-21T06:09:28;506.90;;;460.98;;
21213;SDS011;10764;50.850;2.904;2023-11-21T06:11:55;471.20;;;428.45;;
21213;SDS011;10764;50.850;2.904;2023-11-21T06:14:22;349.33;;;318.05;;
21213;SDS011;10764;50.850;2.904;2023-11-21T06:16:49;375.38;;;341.65;;
21213;SDS011;10764;50.850;2.904;2023-11-21T06:19:17;383.13;;;348.58;;
21213;SDS011;10764;50.850;2.904;2023-11-21T06:21:47;397.23;;;361.42;;
21213;SDS011;10764;50.850;2.904;2023-11-21T06:24:14;388.08;;;353.00;;
21213;SDS011;10764;50.850;2.904;2023-11-21T06:26:41;360.27;;;327.90;;
21213;SDS011;10764;50.850;2.904;2023-11-21T06:29:10;323.17;;;294.45;;
21213;SDS011;10764;50.850;2.904;2023-11-21T06:31:37;264.63;;;241.50;;
21213;SDS011;10764;50.850;2.904;2023-11-21T06:34:04;239.25;;;218.43;;
21213;SDS011;10764;50.850;2.904;2023-11-21T06:36:31;260.60;;;237.93;;
21213;SDS011;10764;50.850;2.904;2023-11-21T06:38:58;271.05;;;247.30;;
21213;SDS011;10764;50.850;2.904;2023-11-21T06:41:24;276.50;;;252.02;;
21213;SDS011;10764;50.850;2.904;2023-11-21T06:43:51;267.33;;;243.67;;
21213;SDS011;10764;50.850;2.904;2023-11-21T06:46:19;288.65;;;263.20;;
21213;SDS011;10764;50.850;2.904;2023-11-21T06:48:46;327.07;;;298.03;;
21213;SDS011;10764;50.850;2.904;2023-11-21T06:51:15;329.87;;;300.47;;
21213;SDS011;10764;50.850;2.904;2023-11-21T06:53:41;254.35;;;232.10;;
21213;SDS011;10764;50.850;2.904;2023-11-21T06:56:15;275.88;;;251.65;;
21213;SDS011;10764;50.850;2.904;2023-11-21T06:58:44;232.15;;;212.18;;
21213;SDS011;10764;50.850;2.904;2023-11-21T07:01:12;220.68;;;201.32;;
21213;SDS011;10764;50.850;2.904;2023-11-21T07:03:40;211.45;;;193.40;;
21213;SDS011;10764;50.850;2.904;2023-11-21T07:06:08;299.45;;;272.95;;
21213;SDS011;10764;50.850;2.904;2023-11-21T07:08:35;279.17;;;254.48;;
21213;SDS011;10764;50.850;2.904;2023-11-21T07:11:02;123.10;;;113.05;;
21213;SDS011;10764;50.850;2.904;2023-11-21T07:13:30;90.68;;;83.57;;
21213;SDS011;10764;50.850;2.904;2023-11-21T07:15:57;108.93;;;100.28;;
21213;SDS011;10764;50.850;2.904;2023-11-21T07:18:25;94.72;;;87.15;;
21213;SDS011;10764;50.850;2.904;2023-11-21T07:20:52;118.65;;;109.10;;
21213;SDS011;10764;50.850;2.904;2023-11-21T07:23:19;221.93;;;202.80;;
21213;SDS011;10764;50.850;2.904;2023-11-21T07:25:49;167.30;;;153.25;;
21213;SDS011;10764;50.850;2.904;2023-11-21T07:28:16;195.77;;;179.03;;
21213;SDS011;10764;50.850;2.904;2023-11-21T07:30:42;224.07;;;204.65;;
21213;SDS011;10764;50.850;2.904;2023-11-21T07:33:10;217.10;;;198.20;;
21213;SDS011;10764;50.850;2.904;2023-11-21T07:35:37;205.85;;;187.88;;
21213;SDS011;10764;50.850;2.904;2023-11-21T07:38:04;152.55;;;140.00;;
21213;SDS011;10764;50.850;2.904;2023-11-21T07:40:30;169.13;;;154.90;;
21213;SDS011;10764;50.850;2.904;2023-11-21T07:42:58;116.65;;;107.30;;
21213;SDS011;10764;50.850;2.904;2023-11-21T07:45:27;156.53;;;143.27;;
21213;SDS011;10764;50.850;2.904;2023-11-21T07:47:54;154.55;;;141.63;;
21213;SDS011;10764;50.850;2.904;2023-11-21T07:50:22;276.13;;;251.15;;
21213;SDS011;10764;50.850;2.904;2023-11-21T07:52:49;227.02;;;206.80;;
21213;SDS011;10764;50.850;2.904;2023-11-21T07:55:17;250.20;;;228.07;;
21213;SDS011;10764;50.850;2.904;2023-11-21T07:57:44;228.68;;;208.23;;
21213;SDS011;10764;50.850;2.904;2023-11-21T08:00:11;214.80;;;195.87;;
21213;SDS011;10764;50.850;2.904;2023-11-21T08:02:39;215.73;;;196.88;;
21213;SDS011;10764;50.850;2.904;2023-11-21T08:05:09;236.23;;;215.48;;
21213;SDS011;10764;50.850;2.904;2023-11-21T08:07:49;235.02;;;214.25;;
21213;SDS011;10764;50.850;2.904;2023-11-21T08:10:17;233.40;;;213.10;;
21213;SDS011;10764;50.850;2.904;2023-11-21T08:12:44;226.27;;;206.68;;
21213;SDS011;10764;50.850;2.904;2023-11-21T08:15:10;243.27;;;221.80;;
21213;SDS011;10764;50.850;2.904;2023-11-21T08:17:37;231.55;;;211.20;;
21213;SDS011;10764;50.850;2.904;2023-11-21T08:20:05;235.75;;;215.13;;
21213;SDS011;10764;50.850;2.904;2023-11-21T08:22:35;244.73;;;223.53;;
21213;SDS011;10764;50.850;2.904;2023-11-21T08:25:02;240.70;;;219.57;;
21213;SDS011;10764;50.850;2.904;2023-11-21T08:27:31;256.75;;;234.20;;
21213;SDS011;10764;50.850;2.904;2023-11-21T08:29:57;245.90;;;224.25;;
21213;SDS011;10764;50.850;2.904;2023-11-21T08:32:24;250.73;;;228.50;;
21213;SDS011;10764;50.850;2.904;2023-11-21T08:34:51;233.15;;;212.98;;
21213;SDS011;10764;50.850;2.904;2023-11-21T08:37:19;157.20;;;144.10;;
21213;SDS011;10764;50.850;2.904;2023-11-21T08:39:47;94.10;;;86.43;;
21213;SDS011;10764;50.850;2.904;2023-11-21T08:42:19;102.97;;;94.78;;
21213;SDS011;10764;50.850;2.904;2023-11-21T08:44:46;78.70;;;72.47;;
21213;SDS011;10764;50.850;2.904;2023-11-21T08:47:13;60.85;;;56.00;;
21213;SDS011;10764;50.850;2.904;2023-11-21T08:49:40;59.67;;;54.88;;
21213;SDS011;10764;50.850;2.904;2023-11-21T08:52:07;59.00;;;54.40;;
21213;SDS011;10764;50.850;2.904;2023-11-21T08:54:35;59.83;;;55.05;;
21213;SDS011;10764;50.850;2.904;2023-11-21T08:57:02;58.80;;;54.13;;
21213;SDS011;10764;50.850;2.904;2023-11-21T08:59:29;65.15;;;59.88;;
21213;SDS011;10764;50.850;2.904;2023-11-21T09:01:58;68.40;;;63.20;;
21213;SDS011;10764;50.850;2.904;2023-11-21T09:04:25;25.15;;;23.13;;
21213;SDS011;10764;50.850;2.904;2023-11-21T09:06:52;11.10;;;10.20;;
21213;SDS011;10764;50.850;2.904;2023-11-21T09:09:19;23.67;;;21.88;;
21213;SDS011;10764;50.850;2.904;2023-11-21T09:11:46;14.70;;;13.50;;
21213;SDS011;10764;50.850;2.904;2023-11-21T09:14:15;8.35;;;7.57;;
21213;SDS011;10764;50.850;2.904;2023-11-21T09:16:44;8.43;;;7.73;;
21213;SDS011;10764;50.850;2.904;2023-11-21T09:19:12;17.70;;;16.27;;
21213;SDS011;10764;50.850;2.904;2023-11-21T09:21:40;12.82;;;11.80;;
21213;SDS011;10764;50.850;2.904;2023-11-21T09:24:07;10.02;;;9.18;;
21213;SDS011;10764;50.850;2.904;2023-11-21T09:26:35;35.45;;;32.72;;
21213;SDS011;10764;50.850;2.904;2023-11-21T09:29:02;38.90;;;35.80;;
21213;SDS011;10764;50.850;2.904;2023-11-21T09:31:29;39.40;;;36.40;;
21213;SDS011;10764;50.850;2.904;2023-11-21T09:33:57;48.73;;;44.87;;
21213;SDS011;10764;50.850;2.904;2023-11-21T09:36:24;65.97;;;60.75;;
21213;SDS011;10764;50.850;2.904;2023-11-21T09:38:56;62.30;;;57.45;;
21213;SDS011;10764;50.850;2.904;2023-11-21T09:41:34;72.20;;;66.40;;
21213;SDS011;10764;50.850;2.904;2023-11-21T09:44:03;80.97;;;74.57;;
21213;SDS011;10764;50.850;2.904;2023-11-21T09:46:37;47.08;;;43.40;;
21213;SDS011;10764;50.850;2.904;2023-11-21T09:49:06;33.70;;;31.07;;
21213;SDS011;10764;50.850;2.904;2023-11-21T09:51:42;51.67;;;47.60;;
21213;SDS011;10764;50.850;2.904;2023-11-21T09:54:10;68.50;;;63.03;;
21213;SDS011;10764;50.850;2.904;2023-11-21T09:56:38;37.42;;;34.55;;
21213;SDS011;10764;50.850;2.904;2023-11-21T09:59:06;39.10;;;36.00;;
21213;SDS011;10764;50.850;2.904;2023-11-21T10:01:36;58.60;;;43.47;;
21213;SDS011;10764;50.850;2.904;2023-11-21T10:04:04;77.90;;;49.33;;
21213;SDS011;10764;50.850;2.904;2023-11-21T10:06:41;73.32;;;51.58;;
21213;SDS011;10764;50.850;2.904;2023-11-21T10:09:09;84.43;;;49.23;;
21213;SDS011;10764;50.850;2.904;2023-11-21T10:11:39;75.32;;;60.13;;
21213;SDS011;10764;50.850;2.904;2023-11-21T10:14:10;71.38;;;53.33;;
21213;SDS011;10764;50.850;2.904;2023-11-21T10:16:41;72.75;;;63.72;;
21213;SDS011;10764;50.850;2.904;2023-11-21T10:19:11;80.83;;;72.83;;
21213;SDS011;10764;50.850;2.904;2023-11-21T10:21:40;57.90;;;52.20;;
21213;SDS011;10764;50.850;2.904;2023-11-21T10:24:07;71.07;;;64.05;;
21213;SDS011;10764;50.850;2.904;2023-11-21T10:26:34;54.70;;;49.20;;
21213;SDS011;10764;50.850;2.904;2023-11-21T10:29:16;44.35;;;35.70;;
21213;SDS011;10764;50.850;2.904;2023-11-21T10:31:44;43.63;;;34.42;;
21213;SDS011;10764;50.850;2.904;2023-11-21T10:34:12;77.50;;;69.90;;
21213;SDS011;10764;50.850;2.904;2023-11-21T10:36:40;31.63;;;16.58;;
21213;SDS011;10764;50.850;2.904;2023-11-21T10:39:08;23.63;;;14.88;;
21213;SDS011;10764;50.850;2.904;2023-11-21T10:41:36;35.80;;;29.67;;
21213;SDS011;10764;50.850;2.904;2023-11-21T10:44:04;33.60;;;27.05;;
21213;SDS011;10764;50.850;2.904;2023-11-21T10:46:32;31.77;;;26.33;;
21213;SDS011;10764;50.850;2.904;2023-11-21T10:49:00;28.35;;;20.00;;
21213;SDS011;10764;50.850;2.904;2023-11-21T10:51:28;29.57;;;25.33;;
21213;SDS011;10764;50.850;2.904;2023-11-21T10:53:55;25.65;;;20.77;;
21213;SDS011;10764;50.850;2.904;2023-11-21T10:56:23;32.25;;;28.85;;
21213;SDS011;10764;50.850;2.904;2023-11-21T10:58:52;15.65;;;10.93;;
21213;SDS011;10764;50.850;2.904;2023-11-21T11:01:19;25.03;;;19.40;;
21213;SDS011;10764;50.850;2.904;2023-11-21T11:03:50;21.95;;;18.95;;
21213;SDS011;10764;50.850;2.904;2023-11-21T11:06:21;13.57;;;10.70;;
21213;SDS011;10764;50.850;2.904;2023-11-21T11:08:48;22.50;;;20.05;;
21213;SDS011;10764;50.850;2.904;2023-11-21T11:11:16;17.67;;;12.98;;
21213;SDS011;10764;50.850;2.904;2023-11-21T11:13:44;17.55;;;14.05;;
21213;SDS011;10764;50.850;2.904;2023-11-21T11:16:12;26.98;;;22.70;;
21213;SDS011;10764;50.850;2.904;2023-11-21T11:18:43;15.95;;;12.77;;
21213;SDS011;10764;50.850;2.904;2023-11-21T11:21:21;17.65;;;14.10;;
21213;SDS011;10764;50.850;2.904;2023-11-21T11:37:41;24.98;;;22.55;;
21213;SDS011;10764;50.850;2.904;2023-11-21T11:40:08;20.77;;;18.67;;
21213;SDS011;10764;50.850;2.904;2023-11-21T11:42:37;22.75;;;20.35;;
21213;SDS011;10764;50.850;2.904;2023-11-21T11:45:38;19.05;;;17.20;;
21213;SDS011;10764;50.850;2.904;2023-11-21T11:48:02;32.35;;;29.35;;
21213;SDS011;10764;50.850;2.904;2023-11-21T11:50:32;32.95;;;29.85;;
21213;SDS011;10764;50.850;2.904;2023-11-21T11:53:12;20.63;;;18.53;;
21213;SDS011;10764;50.850;2.904;2023-11-21T11:55:40;26.08;;;23.67;;
21213;SDS011;10764;50.850;2.904;2023-11-21T11:58:07;35.55;;;32.25;;
21213;SDS011;10764;50.850;2.904;2023-11-21T12:00:35;38.88;;;35.42;;
21213;SDS011;10764;50.850;2.904;2023-11-21T12:03:06;31.67;;;28.85;;
21213;SDS011;10764;50.850;2.904;2023-11-21T12:05:35;27.95;;;25.45;;
21213;SDS011;10764;50.850;2.904;2023-11-21T12:08:06;30.65;;;27.90;;
21213;SDS011;10764;50.850;2.904;2023-11-21T12:10:34;35.25;;;32.25;;
21213;SDS011;10764;50.850;2.904;2023-11-21T12:13:05;38.83;;;35.58;;
21213;SDS011;10764;50.850;2.904;2023-11-21T12:15:37;37.40;;;34.10;;
21213;SDS011;10764;50.850;2.904;2023-11-21T12:18:05;34.90;;;31.90;;
21213;SDS011;10764;50.850;2.904;2023-11-21T12:20:33;40.17;;;36.92;;
21213;SDS011;10764;50.850;2.904;2023-11-21T12:23:07;38.77;;;35.37;;
21213;SDS011;10764;50.850;2.904;2023-11-21T12:25:36;40.88;;;37.38;;
21213;SDS011;10764;50.850;2.904;2023-11-21T12:28:03;46.83;;;42.88;;
21213;SDS011;10764;50.850;2.904;2023-11-21T12:30:33;41.70;;;38.25;;
21213;SDS011;10764;50.850;2.904;2023-11-21T12:33:05;34.47;;;31.60;;
21213;SDS011;10764;50.850;2.904;2023-11-21T12:35:35;42.88;;;39.35;;
21213;SDS011;10764;50.850;2.904;2023-11-21T12:38:02;47.88;;;43.80;;
21213;SDS011;10764;50.850;2.904;2023-11-21T12:40:31;44.83;;;41.03;;
21213;SDS011;10764;50.850;2.904;2023-11-21T12:42:59;42.90;;;39.35;;
21213;SDS011;10764;50.850;2.904;2023-11-21T12:45:28;45.88;;;42.00;;
21213;SDS011;10764;50.850;2.904;2023-11-21T12:48:02;53.63;;;48.47;;
21213;SDS011;10764;50.850;2.904;2023-11-21T12:50:35;59.60;;;54.55;;
21213;SDS011;10764;50.850;2.904;2023-11-21T12:53:09;50.28;;;45.97;;
21213;SDS011;10764;50.850;2.904;2023-11-21T12:55:39;51.95;;;47.60;;
21213;SDS011;10764;50.850;2.904;2023-11-21T12:58:07;46.10;;;42.33;;
21213;SDS011;10764;50.850;2.904;2023-11-21T13:03:07;67.68;;;62.15;;
21213;SDS011;10764;50.850;2.904;2023-11-21T13:05:36;37.60;;;34.55;;
21213;SDS011;10764;50.850;2.904;2023-11-21T13:08:09;47.42;;;43.50;;
21213;SDS011;10764;50.850;2.904;2023-11-21T13:10:40;64.00;;;58.72;;
21213;SDS011;10764;50.850;2.904;2023-11-21T13:13:10;49.80;;;45.72;;
21213;SDS011;10764;50.850;2.904;2023-11-21T13:15:47;64.35;;;58.95;;
21213;SDS011;10764;50.850;2.904;2023-11-21T13:18:19;113.93;;;104.88;;
21213;SDS011;10764;50.850;2.904;2023-11-21T13:20:48;1219.63;;;999.90;;
21213;SDS011;10764;50.850;2.904;2023-11-21T13:23:16;325.92;;;296.35;;
21213;SDS011;10764;50.850;2.904;2023-11-21T13:25:43;218.73;;;199.60;;
21213;SDS011;10764;50.850;2.904;2023-11-21T13:28:23;213.88;;;195.23;;
21213;SDS011;10764;50.850;2.904;2023-11-21T13:30:53;192.27;;;175.88;;
21213;SDS011;10764;50.850;2.904;2023-11-21T13:33:20;183.60;;;167.65;;
21213;SDS011;10764;50.850;2.904;2023-11-21T13:35:54;203.67;;;186.10;;
21213;SDS011;10764;50.850;2.904;2023-11-21T13:38:22;227.98;;;207.90;;
21213;SDS011;10764;50.850;2.904;2023-11-21T13:40:50;258.77;;;235.40;;
21213;SDS011;10764;50.850;2.904;2023-11-21T13:43:21;195.85;;;178.80;;
21213;SDS011;10764;50.850;2.904;2023-11-21T13:45:52;246.23;;;224.43;;
21213;SDS011;10764;50.850;2.904;2023-11-21T13:48:43;484.53;;;437.50;;
21213;SDS011;10764;50.850;2.904;2023-11-21T13:51:18;458.42;;;416.33;;
21213;SDS011;10764;50.850;2.904;2023-11-21T13:53:47;602.65;;;547.78;;
21213;SDS011;10764;50.850;2.904;2023-11-21T13:56:16;267.65;;;243.60;;
21213;SDS011;10764;50.850;2.904;2023-11-21T13:58:48;354.50;;;322.02;;
21213;SDS011;10764;50.850;2.904;2023-11-21T14:01:19;226.37;;;206.47;;
21213;SDS011;10764;50.850;2.904;2023-11-21T14:03:59;281.83;;;256.43;;
21213;SDS011;10764;50.850;2.904;2023-11-21T14:06:38;259.38;;;236.05;;
21213;SDS011;10764;50.850;2.904;2023-11-21T14:09:21;213.90;;;195.40;;
21213;SDS011;10764;50.850;2.904;2023-11-21T14:11:52;281.63;;;256.40;;
21213;SDS011;10764;50.850;2.904;2023-11-21T14:14:21;220.52;;;201.30;;
21213;SDS011;10764;50.850;2.904;2023-11-21T14:16:50;307.40;;;279.83;;
21213;SDS011;10764;50.850;2.904;2023-11-21T14:19:18;112.90;;;104.00;;
21213;SDS011;10764;50.850;2.904;2023-11-21T14:21:45;80.38;;;74.00;;
21213;SDS011;10764;50.850;2.904;2023-11-21T14:24:15;57.05;;;52.45;;
21213;SDS011;10764;50.850;2.904;2023-11-21T14:26:45;73.28;;;67.40;;
21213;SDS011;10764;50.850;2.904;2023-11-21T14:29:12;75.85;;;69.75;;